sensor_id;sensor_type;location;lat;lon;timestamp;pressure;altitude;pressure_sealevel;temperature;humidity
6134;BME280;3098;42.678;23.364;2023-09-19T00:00:08;95264.44;;;15.31;100.00
6134;BME280;3098;42.678;23.364;2023-09-19T00:02:38;95326.44;;;15.66;100.00
6134;BME280;3098;42.678;23.364;2023-09-19T00:05:05;95337.88;;;15.67;100.00
6134;BME280;3098;42.678;23.364;2023-09-19T00:07:34;95335.41;;;15.62;100.00
6134;BME280;3098;42.678;23.364;2023-09-19T00:10:02;95347.34;;;15.64;100.00
6134;BME280;3098;42.678;23.364;2023-09-19T00:12:30;95339.66;;;15.63;100.00
6134;BME280;3098;42.678;23.364;2023-09-19T00:14:58;95177.84;;;14.58;100.00
6134;BME280;3098;42.678;23.364;2023-09-19T00:17:27;95237.81;;;15.02;100.00
6134;BME280;3098;42.678;23.364;2023-09-19T00:19:57;95329.63;;;15.60;100.00
6134;BME280;3098;42.678;23.364;2023-09-19T00:22:25;95324.41;;;15.63;100.00
6134;BME280;3098;42.678;23.364;2023-09-19T00:24:52;95266.41;;;15.22;100.00
6134;BME280;3098;42.678;23.364;2023-09-19T00:27:20;95329.19;;;15.58;100.00
6134;BME280;3098;42.678;23.364;2023-09-19T00:29:47;95327.59;;;15.57;100.00
6134;BME280;3098;42.678;23.364;2023-09-19T00:32:14;95275.06;;;15.19;100.00
6134;BME280;3098;42.678;23.364;2023-09-19T00:34:43;95299.31;;;15.35;100.00
6134;BME280;3098;42.678;23.364;2023-09-19T00:37:09;95306.03;;;15.41;100.00
6134;BME280;3098;42.678;23.364;2023-09-19T00:39:38;95312.03;;;15.38;100.00
6134;BME280;3098;42.678;23.364;2023-09-19T00:42:06;95291.03;;;15.28;100.00
6134;BME280;3098;42.678;23.364;2023-09-19T00:44:33;95323.47;;;15.38;100.00
6134;BME280;3098;42.678;23.364;2023-09-19T00:47:03;95319.91;;;15.34;100.00
6134;BME280;3098;42.678;23.364;2023-09-19T00:49:30;95195.34;;;14.47;100.00
6134;BME280;3098;42.678;23.364;2023-09-19T00:52:00;95304.97;;;15.13;100.00
6134;BME280;3098;42.678;23.364;2023-09-19T00:54:30;95325.03;;;15.19;100.00
6134;BME280;3098;42.678;23.364;2023-09-19T00:56:59;95322.38;;;15.19;100.00
6134;BME280;3098;42.678;23.364;2023-09-19T00:59:26;95299.00;;;14.95;100.00
6134;BME280;3098;42.678;23.364;2023-09-19T01:01:54;95301.53;;;14.91;100.00
6134;BME280;3098;42.678;23.364;2023-09-19T01:04:22;95326.59;;;14.99;100.00
6134;BME280;3098;42.678;23.364;2023-09-19T01:06:49;95328.03;;;14.96;100.00
6134;BME280;3098;42.678;23.364;2023-09-19T01:09:20;95330.25;;;14.94;100.00
6134;BME280;3098;42.678;23.364;2023-09-19T01:11:50;95334.81;;;14.94;100.00
6134;BME280;3098;42.678;23.364;2023-09-19T01:14:29;95311.06;;;14.72;100.00
6134;BME280;3098;42.678;23.364;2023-09-19T01:17:04;95281.03;;;14.54;100.00
6134;BME280;3098;42.678;23.364;2023-09-19T01:19:54;95304.31;;;14.74;100.00
6134;BME280;3098;42.678;23.364;2023-09-19T01:22:36;95331.03;;;14.95;100.00
6134;BME280;3098;42.678;23.364;2023-09-19T01:25:46;95328.22;;;14.91;100.00
6134;BME280;3098;42.678;23.364;2023-09-19T01:28:30;95335.31;;;14.87;100.00
6134;BME280;3098;42.678;23.364;2023-09-19T01:31:06;95302.81;;;14.56;100.00
6134;BME280;3098;42.678;23.364;2023-09-19T01:33:59;95270.28;;;14.33;100.00
6134;BME280;3098;42.678;23.364;2023-09-19T01:36:28;95335.84;;;14.81;100.00
6134;BME280;3098;42.678;23.364;2023-09-19T01:38:57;95340.25;;;14.77;100.00
6134;BME280;3098;42.678;23.364;2023-09-19T01:41:58;95290.97;;;14.45;100.00
6134;BME280;3098;42.678;23.364;2023-09-19T01:44:36;95331.34;;;14.73;100.00
6134;BME280;3098;42.678;23.364;2023-09-19T01:47:22;95321.84;;;14.55;100.00
6134;BME280;3098;42.678;23.364;2023-09-19T01:49:57;95329.16;;;14.66;100.00
6134;BME280;3098;42.678;23.364;2023-09-19T01:52:31;95317.31;;;14.55;100.00
6134;BME280;3098;42.678;23.364;2023-09-19T01:55:06;95327.94;;;14.64;100.00
6134;BME280;3098;42.678;23.364;2023-09-19T01:57:40;95269.22;;;14.26;100.00
6134;BME280;3098;42.678;23.364;2023-09-19T02:00:10;95308.53;;;14.46;100.00
6134;BME280;3098;42.678;23.364;2023-09-19T02:02:42;95339.06;;;14.66;100.00
6134;BME280;3098;42.678;23.364;2023-09-19T02:05:11;95351.59;;;14.74;100.00
6134;BME280;3098;42.678;23.364;2023-09-19T02:07:39;95345.75;;;14.80;100.00
6134;BME280;3098;42.678;23.364;2023-09-19T02:10:06;95336.78;;;14.76;100.00
6134;BME280;3098;42.678;23.364;2023-09-19T02:12:36;95279.22;;;14.37;100.00
6134;BME280;3098;42.678;23.364;2023-09-19T02:15:04;95286.22;;;14.51;100.00
6134;BME280;3098;42.678;23.364;2023-09-19T02:17:32;95336.28;;;14.83;100.00
6134;BME280;3098;42.678;23.364;2023-09-19T02:20:00;95342.28;;;14.80;100.00
6134;BME280;3098;42.678;23.364;2023-09-19T02:22:29;95341.19;;;14.81;100.00
6134;BME280;3098;42.678;23.364;2023-09-19T02:24:56;95310.03;;;14.64;100.00
6134;BME280;3098;42.678;23.364;2023-09-19T02:27:26;95344.34;;;14.74;100.00
6134;BME280;3098;42.678;23.364;2023-09-19T02:29:53;95326.81;;;14.65;100.00
6134;BME280;3098;42.678;23.364;2023-09-19T02:32:21;95275.31;;;14.35;100.00
6134;BME280;3098;42.678;23.364;2023-09-19T02:34:49;95325.84;;;14.69;100.00
6134;BME280;3098;42.678;23.364;2023-09-19T02:37:18;95280.81;;;14.38;100.00
6134;BME280;3098;42.678;23.364;2023-09-19T02:39:45;95321.47;;;14.65;100.00
6134;BME280;3098;42.678;23.364;2023-09-19T02:42:12;95292.38;;;14.43;100.00
6134;BME280;3098;42.678;23.364;2023-09-19T02:44:39;95317.25;;;14.64;100.00
6134;BME280;3098;42.678;23.364;2023-09-19T02:47:06;95297.53;;;14.48;100.00
6134;BME280;3098;42.678;23.364;2023-09-19T02:49:34;95315.09;;;14.57;100.00
6134;BME280;3098;42.678;23.364;2023-09-19T02:52:02;95311.16;;;14.55;100.00
6134;BME280;3098;42.678;23.364;2023-09-19T02:54:31;95294.91;;;14.39;100.00
6134;BME280;3098;42.678;23.364;2023-09-19T02:56:58;95306.66;;;14.47;100.00
6134;BME280;3098;42.678;23.364;2023-09-19T02:59:25;95302.31;;;14.33;100.00
6134;BME280;3098;42.678;23.364;2023-09-19T03:01:54;95307.16;;;14.40;100.00
6134;BME280;3098;42.678;23.364;2023-09-19T03:04:21;95265.84;;;14.08;100.00
6134;BME280;3098;42.678;23.364;2023-09-19T03:06:48;95283.03;;;14.19;100.00
6134;BME280;3098;42.678;23.364;2023-09-19T03:09:16;95299.31;;;14.44;100.00
6134;BME280;3098;42.678;23.364;2023-09-19T03:11:46;95298.84;;;14.42;100.00
6134;BME280;3098;42.678;23.364;2023-09-19T03:14:13;95298.50;;;14.43;100.00
6134;BME280;3098;42.678;23.364;2023-09-19T03:16:41;95292.75;;;14.32;100.00
6134;BME280;3098;42.678;23.364;2023-09-19T03:19:10;95277.53;;;14.33;100.00
6134;BME280;3098;42.678;23.364;2023-09-19T03:21:37;95293.50;;;14.42;100.00
6134;BME280;3098;42.678;23.364;2023-09-19T03:24:05;95299.50;;;14.38;100.00
6134;BME280;3098;42.678;23.364;2023-09-19T03:26:32;95271.91;;;14.17;100.00
6134;BME280;3098;42.678;23.364;2023-09-19T03:29:03;95296.69;;;14.26;100.00
6134;BME280;3098;42.678;23.364;2023-09-19T03:31:31;95296.38;;;14.19;100.00
6134;BME280;3098;42.678;23.364;2023-09-19T03:33:59;95299.22;;;14.14;100.00
6134;BME280;3098;42.678;23.364;2023-09-19T03:36:26;95280.03;;;13.92;100.00
6134;BME280;3098;42.678;23.364;2023-09-19T03:38:55;95303.81;;;14.05;100.00
6134;BME280;3098;42.678;23.364;2023-09-19T03:41:22;95308.84;;;14.07;100.00
6134;BME280;3098;42.678;23.364;2023-09-19T03:43:49;95299.16;;;13.85;100.00
6134;BME280;3098;42.678;23.364;2023-09-19T03:46:18;95320.47;;;13.94;100.00
6134;BME280;3098;42.678;23.364;2023-09-19T03:48:45;95320.66;;;13.89;100.00
6134;BME280;3098;42.678;23.364;2023-09-19T03:51:12;95327.09;;;13.88;100.00
6134;BME280;3098;42.678;23.364;2023-09-19T03:53:39;95291.38;;;13.63;100.00
6134;BME280;3098;42.678;23.364;2023-09-19T03:56:06;95324.75;;;13.86;100.00
6134;BME280;3098;42.678;23.364;2023-09-19T03:58:33;95337.44;;;13.89;100.00
6134;BME280;3098;42.678;23.364;2023-09-19T04:01:05;95269.94;;;13.51;100.00
6134;BME280;3098;42.678;23.364;2023-09-19T04:03:33;95334.78;;;13.89;100.00
6134;BME280;3098;42.678;23.364;2023-09-19T04:06:11;95255.38;;;13.40;100.00
6134;BME280;3098;42.678;23.364;2023-09-19T04:08:39;95335.88;;;13.88;100.00
6134;BME280;3098;42.678;23.364;2023-09-19T04:11:06;95341.06;;;13.93;100.00
6134;BME280;3098;42.678;23.364;2023-09-19T04:13:34;95319.59;;;13.81;100.00
6134;BME280;3098;42.678;23.364;2023-09-19T04:16:02;95160.19;;;12.85;100.00
6134;BME280;3098;42.678;23.364;2023-09-19T04:18:29;95340.53;;;14.08;100.00
6134;BME280;3098;42.678;23.364;2023-09-19T04:21:00;95346.97;;;14.07;100.00
6134;BME280;3098;42.678;23.364;2023-09-19T04:23:30;95345.69;;;14.13;100.00
6134;BME280;3098;42.678;23.364;2023-09-19T04:25:57;95348.94;;;14.27;100.00
6134;BME280;3098;42.678;23.364;2023-09-19T04:28:25;95346.91;;;14.24;100.00
6134;BME280;3098;42.678;23.364;2023-09-19T04:30:53;95273.00;;;13.87;100.00
6134;BME280;3098;42.678;23.364;2023-09-19T04:33:20;95286.03;;;14.18;100.00
6134;BME280;3098;42.678;23.364;2023-09-19T04:35:49;95329.53;;;14.56;100.00
6134;BME280;3098;42.678;23.364;2023-09-19T04:38:18;95306.66;;;14.47;100.00
6134;BME280;3098;42.678;23.364;2023-09-19T04:40:45;95323.50;;;14.68;100.00
6134;BME280;3098;42.678;23.364;2023-09-19T04:43:12;95271.88;;;14.34;100.00
6134;BME280;3098;42.678;23.364;2023-09-19T04:45:40;95302.34;;;14.63;100.00
6134;BME280;3098;42.678;23.364;2023-09-19T04:48:07;95317.31;;;14.76;100.00
6134;BME280;3098;42.678;23.364;2023-09-19T04:50:36;95321.22;;;14.87;100.00
6134;BME280;3098;42.678;23.364;2023-09-19T04:53:04;95317.75;;;14.86;100.00
6134;BME280;3098;42.678;23.364;2023-09-19T04:55:34;95314.81;;;15.00;100.00
6134;BME280;3098;42.678;23.364;2023-09-19T04:58:01;95321.41;;;15.03;100.00
6134;BME280;3098;42.678;23.364;2023-09-19T05:00:30;95311.88;;;15.14;100.00
6134;BME280;3098;42.678;23.364;2023-09-19T05:03:00;95266.03;;;14.91;100.00
6134;BME280;3098;42.678;23.364;2023-09-19T05:05:29;95251.63;;;14.83;100.00
6134;BME280;3098;42.678;23.364;2023-09-19T05:07:56;95300.81;;;15.24;100.00
6134;BME280;3098;42.678;23.364;2023-09-19T05:10:24;95294.28;;;15.33;100.00
6134;BME280;3098;42.678;23.364;2023-09-19T05:12:54;95296.00;;;15.38;100.00
6134;BME280;3098;42.678;23.364;2023-09-19T05:15:21;95275.63;;;15.45;100.00
6134;BME280;3098;42.678;23.364;2023-09-19T05:17:49;95277.28;;;15.71;100.00
6134;BME280;3098;42.678;23.364;2023-09-19T05:20:17;95300.78;;;16.10;100.00
6134;BME280;3098;42.678;23.364;2023-09-19T05:22:50;95297.34;;;16.94;100.00
6134;BME280;3098;42.678;23.364;2023-09-19T05:25:24;95278.84;;;18.31;100.00
6134;BME280;3098;42.678;23.364;2023-09-19T05:27:57;95274.13;;;19.45;100.00
6134;BME280;3098;42.678;23.364;2023-09-19T05:30:25;95199.16;;;19.85;100.00
6134;BME280;3098;42.678;23.364;2023-09-19T05:32:53;95236.13;;;21.12;100.00
6134;BME280;3098;42.678;23.364;2023-09-19T05:35:21;95231.94;;;22.25;92.33
6134;BME280;3098;42.678;23.364;2023-09-19T05:37:50;95030.47;;;21.23;87.36
6134;BME280;3098;42.678;23.364;2023-09-19T05:40:17;95231.44;;;23.25;81.22
6134;BME280;3098;42.678;23.364;2023-09-19T05:42:45;95200.88;;;23.18;77.02
6134;BME280;3098;42.678;23.364;2023-09-19T05:45:13;95251.63;;;22.73;79.37
6134;BME280;3098;42.678;23.364;2023-09-19T05:47:44;95212.00;;;22.99;78.19
6134;BME280;3098;42.678;23.364;2023-09-19T05:50:12;95208.28;;;23.31;76.82
6134;BME280;3098;42.678;23.364;2023-09-19T05:52:40;95245.69;;;24.16;74.01
6134;BME280;3098;42.678;23.364;2023-09-19T05:55:10;95237.91;;;24.00;73.31
6134;BME280;3098;42.678;23.364;2023-09-19T05:57:37;95231.59;;;23.57;73.26
6134;BME280;3098;42.678;23.364;2023-09-19T06:00:06;95240.09;;;23.52;73.27
6134;BME280;3098;42.678;23.364;2023-09-19T06:02:38;95244.38;;;23.67;74.18
6134;BME280;3098;42.678;23.364;2023-09-19T06:05:06;95234.00;;;24.01;71.76
6134;BME280;3098;42.678;23.364;2023-09-19T06:07:36;95200.72;;;24.04;70.68
6134;BME280;3098;42.678;23.364;2023-09-19T06:10:05;95189.44;;;22.70;75.13
6134;BME280;3098;42.678;23.364;2023-09-19T06:12:34;95179.38;;;23.50;73.11
6134;BME280;3098;42.678;23.364;2023-09-19T06:15:06;95226.34;;;24.17;69.72
6134;BME280;3098;42.678;23.364;2023-09-19T06:17:34;95235.59;;;24.73;68.01
6134;BME280;3098;42.678;23.364;2023-09-19T06:20:06;95235.63;;;24.48;67.85
6134;BME280;3098;42.678;23.364;2023-09-19T06:22:38;95196.91;;;24.47;67.15
6134;BME280;3098;42.678;23.364;2023-09-19T06:25:07;95193.78;;;24.52;67.70
6134;BME280;3098;42.678;23.364;2023-09-19T06:27:37;95232.09;;;25.04;66.49
6134;BME280;3098;42.678;23.364;2023-09-19T06:30:07;95236.41;;;24.20;68.17
6134;BME280;3098;42.678;23.364;2023-09-19T06:32:35;95169.38;;;23.75;68.91
6134;BME280;3098;42.678;23.364;2023-09-19T06:35:02;95227.88;;;24.50;68.95
6134;BME280;3098;42.678;23.364;2023-09-19T06:37:35;95207.31;;;24.70;66.19
6134;BME280;3098;42.678;23.364;2023-09-19T06:40:05;95201.94;;;24.24;67.27
6134;BME280;3098;42.678;23.364;2023-09-19T06:42:33;95157.22;;;23.23;69.34
6134;BME280;3098;42.678;23.364;2023-09-19T06:45:04;95128.19;;;23.09;69.44
6134;BME280;3098;42.678;23.364;2023-09-19T06:47:31;95228.53;;;23.73;69.61
6134;BME280;3098;42.678;23.364;2023-09-19T06:49:58;95179.75;;;23.41;71.11
6134;BME280;3098;42.678;23.364;2023-09-19T06:52:28;95183.44;;;23.08;70.57
6134;BME280;3098;42.678;23.364;2023-09-19T06:54:57;95241.69;;;23.64;70.80
6134;BME280;3098;42.678;23.364;2023-09-19T06:57:24;95207.28;;;22.85;73.72
6134;BME280;3098;42.678;23.364;2023-09-19T06:59:52;95233.50;;;22.70;74.60
6134;BME280;3098;42.678;23.364;2023-09-19T07:02:20;95238.66;;;22.97;74.13
6134;BME280;3098;42.678;23.364;2023-09-19T07:04:47;95057.78;;;21.61;74.92
6134;BME280;3098;42.678;23.364;2023-09-19T07:07:15;95212.06;;;22.48;74.39
6134;BME280;3098;42.678;23.364;2023-09-19T07:09:42;95242.47;;;22.88;75.19
6134;BME280;3098;42.678;23.364;2023-09-19T07:12:11;95201.56;;;22.43;74.73
6134;BME280;3098;42.678;23.364;2023-09-19T07:14:39;95242.31;;;22.64;75.17
6134;BME280;3098;42.678;23.364;2023-09-19T07:17:06;95236.78;;;22.06;77.49
6134;BME280;3098;42.678;23.364;2023-09-19T07:19:34;95211.84;;;21.79;78.72
6134;BME280;3098;42.678;23.364;2023-09-19T07:22:03;95110.47;;;21.45;78.04
6134;BME280;3098;42.678;23.364;2023-09-19T07:24:31;95243.19;;;22.82;74.55
6134;BME280;3098;42.678;23.364;2023-09-19T07:26:58;95242.09;;;22.86;75.17
6134;BME280;3098;42.678;23.364;2023-09-19T07:29:27;95242.50;;;22.92;73.67
6134;BME280;3098;42.678;23.364;2023-09-19T07:31:55;95160.41;;;21.65;76.53
6134;BME280;3098;42.678;23.364;2023-09-19T07:34:22;95238.75;;;22.56;74.71
6134;BME280;3098;42.678;23.364;2023-09-19T07:36:50;95232.47;;;21.61;77.54
6134;BME280;3098;42.678;23.364;2023-09-19T07:39:17;95201.47;;;21.85;79.95
6134;BME280;3098;42.678;23.364;2023-09-19T07:41:44;95239.53;;;22.09;78.36
6134;BME280;3098;42.678;23.364;2023-09-19T07:44:12;95222.69;;;22.26;76.50
6134;BME280;3098;42.678;23.364;2023-09-19T07:46:41;95234.69;;;21.89;78.34
6134;BME280;3098;42.678;23.364;2023-09-19T07:49:10;95209.22;;;22.30;77.03
6134;BME280;3098;42.678;23.364;2023-09-19T07:51:37;95112.34;;;21.41;78.42
6134;BME280;3098;42.678;23.364;2023-09-19T07:54:05;95234.75;;;22.36;78.27
6134;BME280;3098;42.678;23.364;2023-09-19T07:56:33;95239.97;;;22.15;79.37
6134;BME280;3098;42.678;23.364;2023-09-19T07:59:00;95223.94;;;22.36;78.00
6134;BME280;3098;42.678;23.364;2023-09-19T08:01:28;95237.53;;;22.47;78.40
6134;BME280;3098;42.678;23.364;2023-09-19T08:03:56;95216.00;;;22.10;79.24
6134;BME280;3098;42.678;23.364;2023-09-19T08:06:24;95079.03;;;21.23;79.47
6134;BME280;3098;42.678;23.364;2023-09-19T08:08:55;95146.13;;;21.64;79.47
6134;BME280;3098;42.678;23.364;2023-09-19T08:11:23;95243.44;;;22.63;80.27
6134;BME280;3098;42.678;23.364;2023-09-19T08:13:50;95201.84;;;23.78;73.77
6134;BME280;3098;42.678;23.364;2023-09-19T08:16:18;95136.84;;;23.82;69.70
6134;BME280;3098;42.678;23.364;2023-09-19T08:18:48;95063.69;;;23.32;70.12
6134;BME280;3098;42.678;23.364;2023-09-19T08:21:22;95222.78;;;25.05;66.51
6134;BME280;3098;42.678;23.364;2023-09-19T08:23:49;95191.38;;;25.04;65.65
6134;BME280;3098;42.678;23.364;2023-09-19T08:26:17;95106.44;;;22.88;70.08
6134;BME280;3098;42.678;23.364;2023-09-19T08:28:45;95153.47;;;23.63;70.13
6134;BME280;3098;42.678;23.364;2023-09-19T08:31:13;95073.00;;;23.70;67.50
6134;BME280;3098;42.678;23.364;2023-09-19T08:33:42;95170.19;;;24.39;67.22
6134;BME280;3098;42.678;23.364;2023-09-19T08:36:11;95166.22;;;24.93;65.85
6134;BME280;3098;42.678;23.364;2023-09-19T08:38:41;95219.25;;;26.05;62.36
6134;BME280;3098;42.678;23.364;2023-09-19T08:41:08;95093.03;;;24.65;62.79
6134;BME280;3098;42.678;23.364;2023-09-19T08:43:36;95199.19;;;24.88;64.52
6134;BME280;3098;42.678;23.364;2023-09-19T08:46:09;95079.03;;;24.91;62.19
6134;BME280;3098;42.678;23.364;2023-09-19T08:48:39;95192.00;;;25.50;62.05
6134;BME280;3098;42.678;23.364;2023-09-19T08:51:15;95181.34;;;26.36;59.01
6134;BME280;3098;42.678;23.364;2023-09-19T08:53:51;95175.38;;;26.00;59.08
6134;BME280;3098;42.678;23.364;2023-09-19T08:56:19;95114.41;;;25.49;59.03
6134;BME280;3098;42.678;23.364;2023-09-19T08:58:50;95206.38;;;25.47;59.72
6134;BME280;3098;42.678;23.364;2023-09-19T09:01:18;95211.03;;;25.40;60.94
6134;BME280;3098;42.678;23.364;2023-09-19T09:03:51;95207.50;;;25.53;59.21
6134;BME280;3098;42.678;23.364;2023-09-19T09:06:19;95164.34;;;24.01;63.67
6134;BME280;3098;42.678;23.364;2023-09-19T09:08:50;95110.16;;;23.91;64.65
6134;BME280;3098;42.678;23.364;2023-09-19T09:11:17;95202.31;;;24.54;63.96
6134;BME280;3098;42.678;23.364;2023-09-19T09:13:45;95166.72;;;24.35;63.97
6134;BME280;3098;42.678;23.364;2023-09-19T09:16:13;95191.31;;;25.18;62.62
6134;BME280;3098;42.678;23.364;2023-09-19T09:18:44;95047.75;;;24.47;60.81
6134;BME280;3098;42.678;23.364;2023-09-19T09:21:11;95195.88;;;25.49;61.00
6134;BME280;3098;42.678;23.364;2023-09-19T09:23:41;95180.00;;;26.03;59.19
6134;BME280;3098;42.678;23.364;2023-09-19T09:26:10;95191.69;;;27.63;55.55
6134;BME280;3098;42.678;23.364;2023-09-19T09:28:44;95115.50;;;27.22;54.90
6134;BME280;3098;42.678;23.364;2023-09-19T09:31:22;95106.13;;;25.67;57.67
6134;BME280;3098;42.678;23.364;2023-09-19T09:33:53;95179.63;;;26.04;58.88
6134;BME280;3098;42.678;23.364;2023-09-19T09:36:33;95157.09;;;26.04;58.32
6134;BME280;3098;42.678;23.364;2023-09-19T09:39:02;95170.69;;;26.04;59.73
6134;BME280;3098;42.678;23.364;2023-09-19T09:41:42;95145.84;;;26.91;57.36
6134;BME280;3098;42.678;23.364;2023-09-19T09:44:15;95142.34;;;27.24;54.68
6134;BME280;3098;42.678;23.364;2023-09-19T09:46:43;95164.13;;;27.24;54.77
6134;BME280;3098;42.678;23.364;2023-09-19T09:49:27;95168.44;;;27.55;54.17
6134;BME280;3098;42.678;23.364;2023-09-19T09:52:00;95145.91;;;27.51;53.12
6134;BME280;3098;42.678;23.364;2023-09-19T09:54:31;95126.22;;;27.67;52.59
6134;BME280;3098;42.678;23.364;2023-09-19T09:57:05;95102.44;;;27.44;52.44
6134;BME280;3098;42.678;23.364;2023-09-19T09:59:47;95122.09;;;27.25;52.28
6134;BME280;3098;42.678;23.364;2023-09-19T10:02:15;95142.09;;;27.45;52.28
6134;BME280;3098;42.678;23.364;2023-09-19T10:04:49;95102.91;;;26.68;53.98
6134;BME280;3098;42.678;23.364;2023-09-19T10:07:26;95130.53;;;26.66;54.83
6134;BME280;3098;42.678;23.364;2023-09-19T10:09:59;94924.69;;;25.00;55.48
6134;BME280;3098;42.678;23.364;2023-09-19T10:12:38;95126.81;;;25.50;57.38
6134;BME280;3098;42.678;23.364;2023-09-19T10:15:11;95147.38;;;26.54;56.67
6134;BME280;3098;42.678;23.364;2023-09-19T10:17:43;95147.81;;;26.49;56.22
6134;BME280;3098;42.678;23.364;2023-09-19T10:20:16;95096.69;;;26.34;55.35
6134;BME280;3098;42.678;23.364;2023-09-19T10:22:50;95134.66;;;25.27;58.85
6134;BME280;3098;42.678;23.364;2023-09-19T10:25:25;95103.31;;;25.12;58.70
6134;BME280;3098;42.678;23.364;2023-09-19T10:27:56;95132.75;;;25.21;59.82
6134;BME280;3098;42.678;23.364;2023-09-19T10:30:25;95135.94;;;25.05;60.14
6134;BME280;3098;42.678;23.364;2023-09-19T10:33:01;95071.19;;;25.07;58.65
6134;BME280;3098;42.678;23.364;2023-09-19T10:35:29;94946.00;;;24.18;59.71
6134;BME280;3098;42.678;23.364;2023-09-19T10:37:59;95081.66;;;25.70;57.60
6134;BME280;3098;42.678;23.364;2023-09-19T10:40:28;95073.66;;;25.49;58.23
6134;BME280;3098;42.678;23.364;2023-09-19T10:43:04;95120.13;;;26.17;57.68
6134;BME280;3098;42.678;23.364;2023-09-19T10:45:33;95122.03;;;26.23;57.46
6134;BME280;3098;42.678;23.364;2023-09-19T10:48:01;95098.88;;;26.46;56.29
6134;BME280;3098;42.678;23.364;2023-09-19T10:50:32;95114.28;;;25.70;58.01
6134;BME280;3098;42.678;23.364;2023-09-19T10:53:03;95122.47;;;26.18;57.64
6134;BME280;3098;42.678;23.364;2023-09-19T10:55:33;95107.19;;;25.14;59.53
6134;BME280;3098;42.678;23.364;2023-09-19T10:58:05;95088.00;;;25.46;58.44
6134;BME280;3098;42.678;23.364;2023-09-19T11:00:53;95107.94;;;25.88;57.76
6134;BME280;3098;42.678;23.364;2023-09-19T11:03:22;95102.38;;;25.43;58.65
6134;BME280;3098;42.678;23.364;2023-09-19T11:06:03;95077.31;;;25.14;59.73
6134;BME280;3098;42.678;23.364;2023-09-19T11:08:59;95099.72;;;25.36;59.92
6134;BME280;3098;42.678;23.364;2023-09-19T11:11:46;95100.22;;;25.83;58.14
6134;BME280;3098;42.678;23.364;2023-09-19T11:14:30;95103.22;;;26.40;57.78
6134;BME280;3098;42.678;23.364;2023-09-19T11:17:30;95105.13;;;26.43;58.46
6134;BME280;3098;42.678;23.364;2023-09-19T11:20:24;94872.81;;;25.35;55.83
6134;BME280;3098;42.678;23.364;2023-09-19T11:23:20;95097.69;;;26.88;56.94
6134;BME280;3098;42.678;23.364;2023-09-19T11:25:50;95078.78;;;26.36;57.14
6134;BME280;3098;42.678;23.364;2023-09-19T11:28:33;95018.16;;;26.39;56.13
6134;BME280;3098;42.678;23.364;2023-09-19T11:40:12;95053.22;;;26.64;55.85
6134;BME280;3098;42.678;23.364;2023-09-19T11:42:44;95062.34;;;26.47;56.42
6134;BME280;3098;42.678;23.364;2023-09-19T11:48:27;95001.88;;;26.66;54.73
6134;BME280;3098;42.678;23.364;2023-09-19T11:50:56;95049.19;;;27.09;54.57
6134;BME280;3098;42.678;23.364;2023-09-19T11:53:31;95040.31;;;27.32;53.90
6134;BME280;3098;42.678;23.364;2023-09-19T11:56:04;95028.56;;;26.81;54.77
6134;BME280;3098;42.678;23.364;2023-09-19T11:58:37;95054.91;;;27.18;54.45
6134;BME280;3098;42.678;23.364;2023-09-19T12:01:05;95023.56;;;26.73;55.98
6134;BME280;3098;42.678;23.364;2023-09-19T12:03:42;95043.91;;;26.95;54.80
6134;BME280;3098;42.678;23.364;2023-09-19T12:06:14;94991.63;;;26.77;54.70
6134;BME280;3098;42.678;23.364;2023-09-19T12:08:44;94981.16;;;26.45;55.47
6134;BME280;3098;42.678;23.364;2023-09-19T12:11:14;95036.22;;;27.47;53.31
6134;BME280;3098;42.678;23.364;2023-09-19T12:13:43;94974.38;;;26.60;54.55
6134;BME280;3098;42.678;23.364;2023-09-19T12:16:15;94988.81;;;26.88;54.70
6134;BME280;3098;42.678;23.364;2023-09-19T12:18:44;94914.34;;;26.44;54.62
6134;BME280;3098;42.678;23.364;2023-09-19T12:21:27;95018.72;;;27.18;54.28
6134;BME280;3098;42.678;23.364;2023-09-19T12:24:04;95009.00;;;26.90;54.50
6134;BME280;3098;42.678;23.364;2023-09-19T12:26:39;94902.22;;;25.85;55.85
6134;BME280;3098;42.678;23.364;2023-09-19T12:29:18;94967.19;;;25.68;56.70
6134;BME280;3098;42.678;23.364;2023-09-19T12:31:50;94973.44;;;26.03;56.37
6134;BME280;3098;42.678;23.364;2023-09-19T12:34:20;94996.00;;;25.59;58.41
6134;BME280;3098;42.678;23.364;2023-09-19T12:36:48;94986.47;;;25.33;59.00
6134;BME280;3098;42.678;23.364;2023-09-19T12:39:26;94994.25;;;25.31;59.86
6134;BME280;3098;42.678;23.364;2023-09-19T12:41:55;94930.91;;;24.97;58.93
6134;BME280;3098;42.678;23.364;2023-09-19T12:44:22;94989.97;;;25.34;59.67
6134;BME280;3098;42.678;23.364;2023-09-19T12:46:51;94764.22;;;23.84;59.38
6134;BME280;3098;42.678;23.364;2023-09-19T12:49:20;94978.56;;;25.01;60.29
6134;BME280;3098;42.678;23.364;2023-09-19T12:51:49;94905.03;;;24.85;60.17
6134;BME280;3098;42.678;23.364;2023-09-19T12:54:18;94976.09;;;25.69;58.33
6134;BME280;3098;42.678;23.364;2023-09-19T12:56:49;94958.34;;;25.09;60.08
6134;BME280;3098;42.678;23.364;2023-09-19T12:59:16;94981.63;;;25.58;59.74
6134;BME280;3098;42.678;23.364;2023-09-19T13:01:43;94980.56;;;25.90;58.52
6134;BME280;3098;42.678;23.364;2023-09-19T13:04:14;94973.75;;;26.15;57.71
6134;BME280;3098;42.678;23.364;2023-09-19T13:06:44;94979.03;;;26.26;58.21
6134;BME280;3098;42.678;23.364;2023-09-19T13:09:11;94963.97;;;26.52;56.93
6134;BME280;3098;42.678;23.364;2023-09-19T13:11:41;94963.34;;;26.41;57.93
6134;BME280;3098;42.678;23.364;2023-09-19T13:14:20;94888.53;;;25.92;56.83
6134;BME280;3098;42.678;23.364;2023-09-19T13:16:55;94966.69;;;26.52;56.83
6134;BME280;3098;42.678;23.364;2023-09-19T13:19:37;94968.75;;;26.44;57.68
6134;BME280;3098;42.678;23.364;2023-09-19T13:22:36;94963.75;;;26.39;58.13
6134;BME280;3098;42.678;23.364;2023-09-19T13:25:04;94967.41;;;26.25;58.66
6134;BME280;3098;42.678;23.364;2023-09-19T13:27:32;94956.94;;;26.24;57.96
6134;BME280;3098;42.678;23.364;2023-09-19T13:30:01;94931.97;;;25.99;58.68
6134;BME280;3098;42.678;23.364;2023-09-19T13:32:32;94739.97;;;24.80;58.51
6134;BME280;3098;42.678;23.364;2023-09-19T13:34:59;94932.41;;;25.94;58.94
6134;BME280;3098;42.678;23.364;2023-09-19T13:37:26;94903.09;;;25.75;59.19